sensor_id;sensor_type;location;lat;lon;timestamp;pressure;altitude;pressure_sealevel;temperature;humidity
28306;BME280;7516;43.570;1.448;2023-11-18T00:00:04;100667.75;;;9.59;100.00
28306;BME280;7516;43.570;1.448;2023-11-18T00:02:38;100669.41;;;9.60;100.00
28306;BME280;7516;43.570;1.448;2023-11-18T00:05:07;100669.69;;;9.57;100.00
28306;BME280;7516;43.570;1.448;2023-11-18T00:07:35;100668.06;;;9.56;100.00
28306;BME280;7516;43.570;1.448;2023-11-18T00:10:03;100657.84;;;9.53;100.00
28306;BME280;7516;43.570;1.448;2023-11-18T00:12:31;100654.53;;;9.51;100.00
28306;BME280;7516;43.570;1.448;2023-11-18T00:15:00;100662.41;;;9.51;100.00
28306;BME280;7516;43.570;1.448;2023-11-18T00:17:29;100650.00;;;9.53;100.00
28306;BME280;7516;43.570;1.448;2023-11-18T00:19:56;100648.78;;;9.57;100.00
28306;BME280;7516;43.570;1.448;2023-11-18T00:22:25;100648.09;;;9.55;100.00
28306;BME280;7516;43.570;1.448;2023-11-18T00:24:54;100644.50;;;9.56;100.00
28306;BME280;7516;43.570;1.448;2023-11-18T00:27:21;100637.38;;;9.49;100.00
28306;BME280;7516;43.570;1.448;2023-11-18T00:29:51;100633.91;;;9.48;100.00
28306;BME280;7516;43.570;1.448;2023-11-18T00:32:19;100627.31;;;9.44;100.00
28306;BME280;7516;43.570;1.448;2023-11-18T00:34:46;100619.78;;;9.41;100.00
28306;BME280;7516;43.570;1.448;2023-11-18T00:37:14;100615.19;;;9.43;100.00
28306;BME280;7516;43.570;1.448;2023-11-18T00:39:43;100599.22;;;9.46;100.00
28306;BME280;7516;43.570;1.448;2023-11-18T00:42:10;100599.47;;;9.53;100.00
28306;BME280;7516;43.570;1.448;2023-11-18T00:44:38;100597.94;;;9.50;100.00
28306;BME280;7516;43.570;1.448;2023-11-18T00:47:05;100595.78;;;9.46;100.00
28306;BME280;7516;43.570;1.448;2023-11-18T00:49:32;100596.16;;;9.51;100.00
28306;BME280;7516;43.570;1.448;2023-11-18T00:52:00;100589.84;;;9.53;100.00
28306;BME280;7516;43.570;1.448;2023-11-18T00:54:28;100592.03;;;9.58;100.00
28306;BME280;7516;43.570;1.448;2023-11-18T00:56:57;100599.72;;;9.59;100.00
28306;BME280;7516;43.570;1.448;2023-11-18T00:59:25;100604.66;;;9.62;100.00
28306;BME280;7516;43.570;1.448;2023-11-18T01:01:53;100603.00;;;9.61;100.00
28306;BME280;7516;43.570;1.448;2023-11-18T01:04:20;100599.03;;;9.67;100.00
28306;BME280;7516;43.570;1.448;2023-11-18T01:06:47;100581.53;;;9.67;100.00
28306;BME280;7516;43.570;1.448;2023-11-18T01:09:17;100595.28;;;9.69;100.00
28306;BME280;7516;43.570;1.448;2023-11-18T01:11:44;100589.75;;;9.72;100.00
28306;BME280;7516;43.570;1.448;2023-11-18T01:14:13;100595.41;;;9.68;100.00
28306;BME280;7516;43.570;1.448;2023-11-18T01:16:41;100592.00;;;9.67;100.00
28306;BME280;7516;43.570;1.448;2023-11-18T01:19:08;100598.44;;;9.73;100.00
28306;BME280;7516;43.570;1.448;2023-11-18T01:21:36;100595.81;;;9.73;100.00
28306;BME280;7516;43.570;1.448;2023-11-18T01:24:04;100594.44;;;9.69;100.00
28306;BME280;7516;43.570;1.448;2023-11-18T01:26:32;100595.03;;;9.63;100.00
28306;BME280;7516;43.570;1.448;2023-11-18T01:28:58;100594.78;;;9.56;100.00
28306;BME280;7516;43.570;1.448;2023-11-18T01:31:27;100592.06;;;9.48;100.00
28306;BME280;7516;43.570;1.448;2023-11-18T01:33:54;100580.22;;;9.44;100.00
28306;BME280;7516;43.570;1.448;2023-11-18T01:36:22;100593.19;;;9.36;100.00
28306;BME280;7516;43.570;1.448;2023-11-18T01:38:49;100583.69;;;9.35;100.00
28306;BME280;7516;43.570;1.448;2023-11-18T01:41:17;100600.47;;;9.32;100.00
28306;BME280;7516;43.570;1.448;2023-11-18T01:43:46;100609.97;;;9.33;100.00
28306;BME280;7516;43.570;1.448;2023-11-18T01:46:13;100611.38;;;9.28;100.00
28306;BME280;7516;43.570;1.448;2023-11-18T01:48:44;100601.19;;;9.25;100.00
28306;BME280;7516;43.570;1.448;2023-11-18T01:51:12;100601.78;;;9.19;100.00
28306;BME280;7516;43.570;1.448;2023-11-18T01:53:42;100594.06;;;9.17;100.00
28306;BME280;7516;43.570;1.448;2023-11-18T01:56:11;100582.38;;;9.12;100.00
28306;BME280;7516;43.570;1.448;2023-11-18T01:58:39;100574.00;;;9.08;100.00
28306;BME280;7516;43.570;1.448;2023-11-18T02:01:07;100581.56;;;9.01;100.00
28306;BME280;7516;43.570;1.448;2023-11-18T02:03:36;100580.75;;;9.01;100.00
28306;BME280;7516;43.570;1.448;2023-11-18T02:06:06;100583.63;;;8.98;100.00
28306;BME280;7516;43.570;1.448;2023-11-18T02:08:37;100582.81;;;8.97;100.00
28306;BME280;7516;43.570;1.448;2023-11-18T02:11:14;100583.63;;;8.98;100.00
28306;BME280;7516;43.570;1.448;2023-11-18T02:13:46;100571.41;;;8.98;100.00
28306;BME280;7516;43.570;1.448;2023-11-18T02:16:15;100575.13;;;8.96;100.00
28306;BME280;7516;43.570;1.448;2023-11-18T02:18:43;100578.97;;;8.92;100.00
28306;BME280;7516;43.570;1.448;2023-11-18T02:21:13;100578.16;;;8.91;100.00
28306;BME280;7516;43.570;1.448;2023-11-18T02:23:41;100577.06;;;8.94;100.00
28306;BME280;7516;43.570;1.448;2023-11-18T02:26:10;100581.47;;;8.93;100.00
28306;BME280;7516;43.570;1.448;2023-11-18T02:28:38;100582.28;;;8.94;100.00
28306;BME280;7516;43.570;1.448;2023-11-18T02:31:09;100580.50;;;8.94;100.00
28306;BME280;7516;43.570;1.448;2023-11-18T02:33:47;100570.88;;;8.95;100.00
28306;BME280;7516;43.570;1.448;2023-11-18T02:36:23;100578.97;;;8.92;100.00
28306;BME280;7516;43.570;1.448;2023-11-18T02:38:53;100571.81;;;8.94;100.00
28306;BME280;7516;43.570;1.448;2023-11-18T02:41:24;100559.28;;;8.97;100.00
28306;BME280;7516;43.570;1.448;2023-11-18T02:43:56;100558.91;;;8.92;100.00
28306;BME280;7516;43.570;1.448;2023-11-18T02:46:25;100556.41;;;8.91;100.00
28306;BME280;7516;43.570;1.448;2023-11-18T02:48:53;100551.59;;;8.96;100.00
28306;BME280;7516;43.570;1.448;2023-11-18T02:51:21;100545.41;;;8.97;100.00
28306;BME280;7516;43.570;1.448;2023-11-18T02:53:48;100548.16;;;8.95;100.00
28306;BME280;7516;43.570;1.448;2023-11-18T02:56:16;100550.78;;;8.95;100.00
28306;BME280;7516;43.570;1.448;2023-11-18T02:58:46;100545.25;;;8.98;100.00
28306;BME280;7516;43.570;1.448;2023-11-18T03:01:13;100543.47;;;8.99;100.00
28306;BME280;7516;43.570;1.448;2023-11-18T03:03:41;100541.81;;;8.98;100.00
28306;BME280;7516;43.570;1.448;2023-11-18T03:06:09;100538.53;;;8.96;100.00
28306;BME280;7516;43.570;1.448;2023-11-18T03:08:37;100540.47;;;8.94;100.00
28306;BME280;7516;43.570;1.448;2023-11-18T03:11:07;100527.25;;;8.95;100.00
28306;BME280;7516;43.570;1.448;2023-11-18T03:13:37;100522.31;;;8.92;100.00
28306;BME280;7516;43.570;1.448;2023-11-18T03:16:08;100512.69;;;8.83;100.00
28306;BME280;7516;43.570;1.448;2023-11-18T03:18:38;100515.19;;;8.75;100.00
28306;BME280;7516;43.570;1.448;2023-11-18T03:21:10;100528.25;;;8.75;100.00
28306;BME280;7516;43.570;1.448;2023-11-18T03:23:38;100530.03;;;8.75;100.00
28306;BME280;7516;43.570;1.448;2023-11-18T03:26:07;100532.25;;;8.79;100.00
28306;BME280;7516;43.570;1.448;2023-11-18T03:28:35;100530.28;;;8.81;100.00
28306;BME280;7516;43.570;1.448;2023-11-18T03:31:04;100518.75;;;8.74;100.00
28306;BME280;7516;43.570;1.448;2023-11-18T03:33:33;100515.75;;;8.69;100.00
28306;BME280;7516;43.570;1.448;2023-11-18T03:36:00;100522.22;;;8.65;100.00
28306;BME280;7516;43.570;1.448;2023-11-18T03:38:28;100512.59;;;8.65;100.00
28306;BME280;7516;43.570;1.448;2023-11-18T03:40:55;100509.97;;;8.56;100.00
28306;BME280;7516;43.570;1.448;2023-11-18T03:43:24;100509.03;;;8.57;100.00
28306;BME280;7516;43.570;1.448;2023-11-18T03:45:51;100509.03;;;8.57;100.00
28306;BME280;7516;43.570;1.448;2023-11-18T03:48:22;100508.06;;;8.58;100.00
28306;BME280;7516;43.570;1.448;2023-11-18T03:50:52;100499.00;;;8.52;100.00
28306;BME280;7516;43.570;1.448;2023-11-18T03:53:20;100498.44;;;8.49;100.00
28306;BME280;7516;43.570;1.448;2023-11-18T03:55:47;100496.66;;;8.49;100.00
28306;BME280;7516;43.570;1.448;2023-11-18T03:58:15;100492.00;;;8.53;100.00
28306;BME280;7516;43.570;1.448;2023-11-18T04:00:42;100501.19;;;8.57;100.00
28306;BME280;7516;43.570;1.448;2023-11-18T04:03:10;100496.22;;;8.54;100.00
28306;BME280;7516;43.570;1.448;2023-11-18T04:05:38;100499.66;;;8.54;100.00
28306;BME280;7516;43.570;1.448;2023-11-18T04:08:07;100492.97;;;8.52;100.00
28306;BME280;7516;43.570;1.448;2023-11-18T04:10:34;100499.84;;;8.43;100.00
28306;BME280;7516;43.570;1.448;2023-11-18T04:13:02;100502.97;;;8.47;100.00
28306;BME280;7516;43.570;1.448;2023-11-18T04:15:29;100503.81;;;8.47;100.00
28306;BME280;7516;43.570;1.448;2023-11-18T04:17:56;100500.09;;;8.50;100.00
28306;BME280;7516;43.570;1.448;2023-11-18T04:20:24;100510.69;;;8.48;100.00
28306;BME280;7516;43.570;1.448;2023-11-18T04:22:51;100506.72;;;8.44;100.00
28306;BME280;7516;43.570;1.448;2023-11-18T04:25:21;100516.16;;;8.36;100.00
28306;BME280;7516;43.570;1.448;2023-11-18T04:27:49;100512.59;;;8.37;100.00
28306;BME280;7516;43.570;1.448;2023-11-18T04:30:16;100514.00;;;8.41;100.00
28306;BME280;7516;43.570;1.448;2023-11-18T04:32:44;100508.63;;;8.33;100.00
28306;BME280;7516;43.570;1.448;2023-11-18T04:35:11;100510.53;;;8.30;100.00
28306;BME280;7516;43.570;1.448;2023-11-18T04:37:39;100506.25;;;8.29;100.00
28306;BME280;7516;43.570;1.448;2023-11-18T04:40:09;100510.66;;;8.29;100.00
28306;BME280;7516;43.570;1.448;2023-11-18T04:42:39;100513.41;;;8.27;100.00
28306;BME280;7516;43.570;1.448;2023-11-18T04:45:07;100517.16;;;8.35;100.00
28306;BME280;7516;43.570;1.448;2023-11-18T04:47:36;100512.75;;;8.35;100.00
28306;BME280;7516;43.570;1.448;2023-11-18T04:50:05;100509.31;;;8.35;100.00
28306;BME280;7516;43.570;1.448;2023-11-18T04:52:34;100502.44;;;8.34;100.00
28306;BME280;7516;43.570;1.448;2023-11-18T04:55:03;100494.63;;;8.34;100.00
28306;BME280;7516;43.570;1.448;2023-11-18T04:57:31;100504.78;;;8.37;100.00
28306;BME280;7516;43.570;1.448;2023-11-18T05:00:00;100502.44;;;8.34;100.00
28306;BME280;7516;43.570;1.448;2023-11-18T05:02:36;100499.28;;;8.40;100.00
28306;BME280;7516;43.570;1.448;2023-11-18T05:05:04;100488.69;;;8.41;100.00
28306;BME280;7516;43.570;1.448;2023-11-18T05:07:32;100489.91;;;8.47;100.00
28306;BME280;7516;43.570;1.448;2023-11-18T05:10:00;100487.44;;;8.45;100.00
28306;BME280;7516;43.570;1.448;2023-11-18T05:12:29;100481.25;;;8.46;100.00
28306;BME280;7516;43.570;1.448;2023-11-18T05:14:56;100476.16;;;8.45;100.00
28306;BME280;7516;43.570;1.448;2023-11-18T05:17:25;100478.78;;;8.45;100.00
28306;BME280;7516;43.570;1.448;2023-11-18T05:19:53;100483.47;;;8.51;100.00
28306;BME280;7516;43.570;1.448;2023-11-18T05:22:20;100487.03;;;8.50;100.00
28306;BME280;7516;43.570;1.448;2023-11-18T05:24:48;100485.78;;;8.54;100.00
28306;BME280;7516;43.570;1.448;2023-11-18T05:27:15;100485.50;;;8.57;100.00
28306;BME280;7516;43.570;1.448;2023-11-18T05:29:44;100490.47;;;8.60;100.00
28306;BME280;7516;43.570;1.448;2023-11-18T05:32:14;100490.47;;;8.60;100.00
28306;BME280;7516;43.570;1.448;2023-11-18T05:34:43;100486.91;;;8.61;100.00
28306;BME280;7516;43.570;1.448;2023-11-18T05:37:11;100482.22;;;8.55;100.00
28306;BME280;7516;43.570;1.448;2023-11-18T05:39:39;100484.16;;;8.53;100.00
28306;BME280;7516;43.570;1.448;2023-11-18T05:42:10;100489.91;;;8.47;100.00
28306;BME280;7516;43.570;1.448;2023-11-18T05:44:37;100480.44;;;8.46;100.00
28306;BME280;7516;43.570;1.448;2023-11-18T05:47:06;100477.44;;;8.41;100.00
28306;BME280;7516;43.570;1.448;2023-11-18T05:49:34;100480.03;;;8.41;100.00
28306;BME280;7516;43.570;1.448;2023-11-18T05:52:03;100484.56;;;8.39;100.00
28306;BME280;7516;43.570;1.448;2023-11-18T05:54:30;100480.75;;;8.33;100.00
28306;BME280;7516;43.570;1.448;2023-11-18T05:56:58;100473.41;;;8.27;100.00
28306;BME280;7516;43.570;1.448;2023-11-18T05:59:25;100470.00;;;8.26;100.00
28306;BME280;7516;43.570;1.448;2023-11-18T06:01:53;100471.34;;;8.21;100.00
28306;BME280;7516;43.570;1.448;2023-11-18T06:04:23;100465.31;;;8.20;100.00
28306;BME280;7516;43.570;1.448;2023-11-18T06:06:51;100463.66;;;8.19;100.00
28306;BME280;7516;43.570;1.448;2023-11-18T06:09:20;100471.34;;;8.11;100.00
28306;BME280;7516;43.570;1.448;2023-11-18T06:11:51;100470.66;;;8.09;100.00
28306;BME280;7516;43.570;1.448;2023-11-18T06:14:19;100473.56;;;8.06;100.00
28306;BME280;7516;43.570;1.448;2023-11-18T06:16:47;100469.31;;;8.05;100.00
28306;BME280;7516;43.570;1.448;2023-11-18T06:19:16;100473.97;;;8.02;100.00
28306;BME280;7516;43.570;1.448;2023-11-18T06:21:44;100479.19;;;8.02;100.00
28306;BME280;7516;43.570;1.448;2023-11-18T06:24:12;100484.41;;;8.02;100.00
28306;BME280;7516;43.570;1.448;2023-11-18T06:26:42;100476.16;;;7.97;100.00
28306;BME280;7516;43.570;1.448;2023-11-18T06:29:09;100472.31;;;7.91;100.00
28306;BME280;7516;43.570;1.448;2023-11-18T06:31:36;100484.38;;;7.92;100.00
28306;BME280;7516;43.570;1.448;2023-11-18T06:34:04;100487.97;;;7.91;100.00
28306;BME280;7516;43.570;1.448;2023-11-18T06:36:31;100483.59;;;7.91;100.00
28306;BME280;7516;43.570;1.448;2023-11-18T06:38:59;100482.19;;;7.87;100.00
28306;BME280;7516;43.570;1.448;2023-11-18T06:41:26;100486.31;;;7.90;100.00
28306;BME280;7516;43.570;1.448;2023-11-18T06:44:01;100479.31;;;7.90;100.00
28306;BME280;7516;43.570;1.448;2023-11-18T06:46:35;100485.91;;;7.85;100.00
28306;BME280;7516;43.570;1.448;2023-11-18T06:49:06;100476.84;;;7.89;100.00
28306;BME280;7516;43.570;1.448;2023-11-18T06:51:34;100477.09;;;7.86;100.00
28306;BME280;7516;43.570;1.448;2023-11-18T06:54:04;100488.78;;;7.82;100.00
28306;BME280;7516;43.570;1.448;2023-11-18T06:56:35;100487.97;;;7.81;100.00
28306;BME280;7516;43.570;1.448;2023-11-18T06:59:06;100490.41;;;7.83;100.00
28306;BME280;7516;43.570;1.448;2023-11-18T07:01:33;100481.09;;;7.80;100.00
28306;BME280;7516;43.570;1.448;2023-11-18T07:04:01;100495.94;;;7.80;100.00
28306;BME280;7516;43.570;1.448;2023-11-18T07:06:29;100484.41;;;7.82;100.00
28306;BME280;7516;43.570;1.448;2023-11-18T07:08:57;100485.19;;;7.83;100.00
28306;BME280;7516;43.570;1.448;2023-11-18T07:11:26;100486.72;;;7.85;100.00
28306;BME280;7516;43.570;1.448;2023-11-18T07:13:54;100483.16;;;7.86;100.00
28306;BME280;7516;43.570;1.448;2023-11-18T07:16:25;100490.59;;;7.91;100.00
28306;BME280;7516;43.570;1.448;2023-11-18T07:18:52;100487.00;;;7.92;100.00
28306;BME280;7516;43.570;1.448;2023-11-18T07:21:20;100495.81;;;7.91;100.00
28306;BME280;7516;43.570;1.448;2023-11-18T07:23:47;100493.72;;;7.94;100.00
28306;BME280;7516;43.570;1.448;2023-11-18T07:26:15;100491.00;;;7.96;100.00
28306;BME280;7516;43.570;1.448;2023-11-18T07:28:42;100500.34;;;7.99;100.00
28306;BME280;7516;43.570;1.448;2023-11-18T07:31:11;100493.06;;;8.02;100.00
28306;BME280;7516;43.570;1.448;2023-11-18T07:33:39;100500.06;;;8.11;100.00
28306;BME280;7516;43.570;1.448;2023-11-18T07:36:10;100492.53;;;8.18;100.00
28306;BME280;7516;43.570;1.448;2023-11-18T07:38:38;100490.72;;;8.18;100.00
28306;BME280;7516;43.570;1.448;2023-11-18T07:41:06;100489.63;;;8.21;100.00
28306;BME280;7516;43.570;1.448;2023-11-18T07:43:34;100492.94;;;8.23;100.00
28306;BME280;7516;43.570;1.448;2023-11-18T07:46:04;100499.25;;;8.30;100.00
28306;BME280;7516;43.570;1.448;2023-11-18T07:48:33;100486.66;;;8.35;100.00
28306;BME280;7516;43.570;1.448;2023-11-18T07:51:03;100484.84;;;8.36;100.00
28306;BME280;7516;43.570;1.448;2023-11-18T07:53:30;100487.03;;;8.40;100.00
28306;BME280;7516;43.570;1.448;2023-11-18T07:55:58;100490.06;;;8.45;100.00
28306;BME280;7516;43.570;1.448;2023-11-18T07:58:28;100497.34;;;8.51;100.00
28306;BME280;7516;43.570;1.448;2023-11-18T08:00:58;100502.00;;;8.57;100.00
28306;BME280;7516;43.570;1.448;2023-11-18T08:03:26;100509.59;;;8.60;100.00
28306;BME280;7516;43.570;1.448;2023-11-18T08:05:54;100503.78;;;8.66;100.00
28306;BME280;7516;43.570;1.448;2023-11-18T08:08:23;100505.31;;;8.69;100.00
28306;BME280;7516;43.570;1.448;2023-11-18T08:10:51;100502.25;;;8.74;100.00
28306;BME280;7516;43.570;1.448;2023-11-18T08:13:19;100490.44;;;8.79;100.00
28306;BME280;7516;43.570;1.448;2023-11-18T08:15:47;100499.50;;;8.85;100.00
28306;BME280;7516;43.570;1.448;2023-11-18T08:18:15;100496.75;;;8.86;100.00
28306;BME280;7516;43.570;1.448;2023-11-18T08:20:44;100497.13;;;8.91;100.00
28306;BME280;7516;43.570;1.448;2023-11-18T08:23:11;100503.59;;;8.97;100.00
28306;BME280;7516;43.570;1.448;2023-11-18T08:25:41;100491.72;;;9.02;100.00
28306;BME280;7516;43.570;1.448;2023-11-18T08:28:09;100502.88;;;9.04;100.00
28306;BME280;7516;43.570;1.448;2023-11-18T08:30:38;100500.78;;;9.08;100.00
28306;BME280;7516;43.570;1.448;2023-11-18T08:33:06;100487.81;;;9.16;100.00
28306;BME280;7516;43.570;1.448;2023-11-18T08:35:35;100498.56;;;9.23;100.00
28306;BME280;7516;43.570;1.448;2023-11-18T08:38:02;100499.91;;;9.27;100.00
28306;BME280;7516;43.570;1.448;2023-11-18T08:40:30;100492.47;;;9.32;100.00
28306;BME280;7516;43.570;1.448;2023-11-18T08:42:59;100490.91;;;9.39;100.00
28306;BME280;7516;43.570;1.448;2023-11-18T08:45:28;100489.63;;;9.43;100.00
28306;BME280;7516;43.570;1.448;2023-11-18T08:47:56;100496.22;;;9.47;100.00
28306;BME280;7516;43.570;1.448;2023-11-18T08:50:24;100492.34;;;9.51;100.00
28306;BME280;7516;43.570;1.448;2023-11-18T08:52:53;100494.09;;;9.60;100.00
28306;BME280;7516;43.570;1.448;2023-11-18T08:55:24;100492.00;;;9.64;100.00
28306;BME280;7516;43.570;1.448;2023-11-18T08:58:06;100493.22;;;9.69;100.00
28306;BME280;7516;43.570;1.448;2023-11-18T09:00:46;100503.75;;;9.77;100.00
28306;BME280;7516;43.570;1.448;2023-11-18T09:03:15;100497.13;;;9.83;100.00
28306;BME280;7516;43.570;1.448;2023-11-18T09:05:51;100502.59;;;9.90;100.00
28306;BME280;7516;43.570;1.448;2023-11-18T09:08:26;100503.97;;;9.94;100.00
28306;BME280;7516;43.570;1.448;2023-11-18T09:10:56;100502.53;;;9.99;100.00
28306;BME280;7516;43.570;1.448;2023-11-18T09:13:26;100497.66;;;10.04;100.00
28306;BME280;7516;43.570;1.448;2023-11-18T09:15:55;100497.22;;;10.09;100.00
28306;BME280;7516;43.570;1.448;2023-11-18T09:18:24;100503.78;;;10.13;100.00
28306;BME280;7516;43.570;1.448;2023-11-18T09:20:52;100490.28;;;10.17;100.00
28306;BME280;7516;43.570;1.448;2023-11-18T09:23:21;100491.63;;;10.22;100.00
28306;BME280;7516;43.570;1.448;2023-11-18T09:25:52;100488.25;;;10.29;100.00
28306;BME280;7516;43.570;1.448;2023-11-18T09:28:21;100495.38;;;10.37;100.00
28306;BME280;7516;43.570;1.448;2023-11-18T09:30:51;100488.56;;;10.44;100.00
28306;BME280;7516;43.570;1.448;2023-11-18T09:33:25;100494.00;;;10.50;100.00
28306;BME280;7516;43.570;1.448;2023-11-18T09:35:55;100491.72;;;10.55;100.00
28306;BME280;7516;43.570;1.448;2023-11-18T09:38:26;100478.03;;;10.62;100.00
28306;BME280;7516;43.570;1.448;2023-11-18T09:40:55;100478.41;;;10.67;100.00
28306;BME280;7516;43.570;1.448;2023-11-18T09:43:24;100472.38;;;10.74;100.00
28306;BME280;7516;43.570;1.448;2023-11-18T09:45:56;100473.25;;;10.83;100.00
28306;BME280;7516;43.570;1.448;2023-11-18T09:48:23;100472.50;;;10.90;100.00
28306;BME280;7516;43.570;1.448;2023-11-18T09:50:57;100483.19;;;10.97;100.00
28306;BME280;7516;43.570;1.448;2023-11-18T09:53:29;100480.91;;;11.02;100.00
28306;BME280;7516;43.570;1.448;2023-11-18T09:56:07;100481.63;;;11.12;100.00
28306;BME280;7516;43.570;1.448;2023-11-18T09:58:57;100487.88;;;11.19;100.00
28306;BME280;7516;43.570;1.448;2023-11-18T10:01:31;100481.69;;;11.28;100.00
28306;BME280;7516;43.570;1.448;2023-11-18T10:04:04;100481.88;;;11.35;100.00
28306;BME280;7516;43.570;1.448;2023-11-18T10:06:35;100481.41;;;11.40;100.00
28306;BME280;7516;43.570;1.448;2023-11-18T10:09:07;100490.00;;;11.50;100.00
28306;BME280;7516;43.570;1.448;2023-11-18T10:11:43;100477.88;;;11.57;100.00
28306;BME280;7516;43.570;1.448;2023-11-18T10:14:13;100485.75;;;11.65;100.00
28306;BME280;7516;43.570;1.448;2023-11-18T10:16:43;100496.28;;;11.73;100.00
28306;BME280;7516;43.570;1.448;2023-11-18T10:19:13;100498.78;;;11.75;100.00
28306;BME280;7516;43.570;1.448;2023-11-18T10:21:43;100491.91;;;11.82;100.00
28306;BME280;7516;43.570;1.448;2023-11-18T10:24:15;100491.44;;;11.86;100.00
28306;BME280;7516;43.570;1.448;2023-11-18T10:26:53;100487.84;;;11.95;100.00
28306;BME280;7516;43.570;1.448;2023-11-18T10:29:23;100480.13;;;12.02;100.00
28306;BME280;7516;43.570;1.448;2023-11-18T10:32:05;100484.06;;;12.14;100.00
28306;BME280;7516;43.570;1.448;2023-11-18T10:34:36;100479.00;;;12.21;100.00
28306;BME280;7516;43.570;1.448;2023-11-18T10:37:04;100478.03;;;12.30;100.00
28306;BME280;7516;43.570;1.448;2023-11-18T10:39:32;100473.25;;;12.33;100.00
28306;BME280;7516;43.570;1.448;2023-11-18T10:42:01;100471.59;;;12.40;100.00
28306;BME280;7516;43.570;1.448;2023-11-18T10:44:29;100459.94;;;12.51;100.00
28306;BME280;7516;43.570;1.448;2023-11-18T10:46:57;100461.72;;;12.59;100.00
28306;BME280;7516;43.570;1.448;2023-11-18T10:49:27;100463.06;;;12.63;100.00
28306;BME280;7516;43.570;1.448;2023-11-18T10:51:56;100461.22;;;12.71;100.00
28306;BME280;7516;43.570;1.448;2023-11-18T10:54:24;100455.78;;;12.81;100.00
28306;BME280;7516;43.570;1.448;2023-11-18T10:56:52;100447.38;;;12.86;100.00
28306;BME280;7516;43.570;1.448;2023-11-18T10:59:22;100447.34;;;12.94;100.00
28306;BME280;7516;43.570;1.448;2023-11-18T11:01:51;100444.06;;;13.00;100.00
28306;BME280;7516;43.570;1.448;2023-11-18T11:04:19;100436.00;;;13.01;100.00
28306;BME280;7516;43.570;1.448;2023-11-18T11:06:50;100433.50;;;13.08;100.00
28306;BME280;7516;43.570;1.448;2023-11-18T11:09:23;100432.81;;;13.22;99.84
28306;BME280;7516;43.570;1.448;2023-11-18T11:11:54;100429.50;;;13.28;98.91
28306;BME280;7516;43.570;1.448;2023-11-18T11:14:28;100427.34;;;13.32;98.97
28306;BME280;7516;43.570;1.448;2023-11-18T11:17:06;100431.25;;;13.44;98.70
28306;BME280;7516;43.570;1.448;2023-11-18T11:19:42;100416.84;;;13.54;98.73
28306;BME280;7516;43.570;1.448;2023-11-18T11:22:19;100420.78;;;13.59;98.21
28306;BME280;7516;43.570;1.448;2023-11-18T11:24:58;100409.75;;;13.63;97.71
28306;BME280;7516;43.570;1.448;2023-11-18T11:27:32;100412.00;;;13.66;97.13
28306;BME280;7516;43.570;1.448;2023-11-18T11:30:10;100412.44;;;13.78;96.54
28306;BME280;7516;43.570;1.448;2023-11-18T11:32:45;100408.63;;;13.80;96.53
28306;BME280;7516;43.570;1.448;2023-11-18T11:35:18;100417.00;;;13.84;96.50
28306;BME280;7516;43.570;1.448;2023-11-18T11:37:53;100410.50;;;13.94;94.98
28306;BME280;7516;43.570;1.448;2023-11-18T11:40:31;100415.22;;;13.99;94.78
28306;BME280;7516;43.570;1.448;2023-11-18T11:43:01;100408.81;;;14.16;92.91
28306;BME280;7516;43.570;1.448;2023-11-18T11:45:31;100410.47;;;14.17;92.82
28306;BME280;7516;43.570;1.448;2023-11-18T11:48:00;100410.41;;;14.25;91.76
28306;BME280;7516;43.570;1.448;2023-11-18T11:50:57;100409.31;;;14.35;91.43
28306;BME280;7516;43.570;1.448;2023-11-18T11:53:35;100409.66;;;14.40;91.02
28306;BME280;7516;43.570;1.448;2023-11-18T11:56:06;100408.28;;;14.44;89.92
28306;BME280;7516;43.570;1.448;2023-11-18T11:58:41;100402.09;;;14.51;89.80
28306;BME280;7516;43.570;1.448;2023-11-18T12:01:16;100397.59;;;14.60;88.81
28306;BME280;7516;43.570;1.448;2023-11-18T12:03:50;100395.94;;;14.59;89.37
28306;BME280;7516;43.570;1.448;2023-11-18T12:06:23;100389.47;;;14.61;88.84
28306;BME280;7516;43.570;1.448;2023-11-18T12:08:54;100389.75;;;14.66;87.34
28306;BME280;7516;43.570;1.448;2023-11-18T12:11:23;100385.03;;;14.77;85.24
28306;BME280;7516;43.570;1.448;2023-11-18T12:14:04;100377.94;;;14.77;86.02
28306;BME280;7516;43.570;1.448;2023-11-18T12:16:58;100362.44;;;14.89;84.27
28306;BME280;7516;43.570;1.448;2023-11-18T12:19:34;100370.81;;;14.92;85.38
28306;BME280;7516;43.570;1.448;2023-11-18T12:22:13;100365.88;;;15.04;83.56
28306;BME280;7516;43.570;1.448;2023-11-18T12:27:57;100371.78;;;15.21;82.14
28306;BME280;7516;43.570;1.448;2023-11-18T12:30:43;100371.78;;;15.21;83.17
28306;BME280;7516;43.570;1.448;2023-11-18T12:33:23;100367.56;;;15.26;83.43
28306;BME280;7516;43.570;1.448;2023-11-18T12:42:09;100363.25;;;15.40;83.03
28306;BME280;7516;43.570;1.448;2023-11-18T12:45:02;100369.44;;;15.47;81.02
28306;BME280;7516;43.570;1.448;2023-11-18T12:47:43;100365.41;;;15.51;81.42
28306;BME280;7516;43.570;1.448;2023-11-18T12:50:12;100363.06;;;15.56;80.42
28306;BME280;7516;43.570;1.448;2023-11-18T12:52:51;100363.75;;;15.65;80.81
28306;BME280;7516;43.570;1.448;2023-11-18T12:55:19;100364.22;;;15.75;78.02
28306;BME280;7516;43.570;1.448;2023-11-18T12:57:48;100350.84;;;15.76;80.02
28306;BME280;7516;43.570;1.448;2023-11-18T13:00:17;100348.81;;;15.78;80.27
28306;BME280;7516;43.570;1.448;2023-11-18T13:02:53;100345.03;;;15.88;78.68
28306;BME280;7516;43.570;1.448;2023-11-18T13:05:20;100347.50;;;15.89;78.75
28306;BME280;7516;43.570;1.448;2023-11-18T13:07:47;100345.53;;;15.98;76.20
28306;BME280;7516;43.570;1.448;2023-11-18T13:10:15;100349.19;;;15.97;77.74
28306;BME280;7516;43.570;1.448;2023-11-18T13:12:43;100344.72;;;15.97;77.24
28306;BME280;7516;43.570;1.448;2023-11-18T13:15:13;100339.63;;;15.96;78.10
28306;BME280;7516;43.570;1.448;2023-11-18T13:17:57;100339.63;;;15.96;78.42
28306;BME280;7516;43.570;1.448;2023-11-18T13:20:25;100332.56;;;16.03;78.44